createdAt,value
2019-03-27T00:00:52.176Z,1027.71
2019-03-27T00:01:52.167Z,1027.71
2019-03-27T00:02:52.160Z,1027.75
2019-03-27T00:03:52.145Z,1027.72
2019-03-27T00:04:52.154Z,1027.72
2019-03-27T00:05:52.122Z,1027.74
2019-03-27T00:06:52.110Z,1027.72
2019-03-27T00:07:52.117Z,1027.77
2019-03-27T00:08:52.090Z,1027.76
2019-03-27T00:09:52.103Z,1027.70
2019-03-27T00:10:52.067Z,1027.75
2019-03-27T00:11:52.058Z,1027.66
2019-03-27T00:12:52.050Z,1027.72
2019-03-27T00:13:52.036Z,1027.62
2019-03-27T00:14:52.044Z,1027.68
2019-03-27T00:15:52.015Z,1027.71
2019-03-27T00:16:52.013Z,1027.65
2019-03-27T00:17:51.993Z,1027.65
2019-03-27T00:18:51.987Z,1027.68
2019-03-27T00:19:51.993Z,1027.68
2019-03-27T00:20:51.961Z,1027.63
2019-03-27T00:21:51.949Z,1027.69
2019-03-27T00:22:51.941Z,1027.71
2019-03-27T00:23:51.930Z,1027.72
2019-03-27T00:24:51.938Z,1027.63
2019-03-27T00:25:51.912Z,1027.71
2019-03-27T00:26:51.895Z,1027.71
2019-03-27T00:27:51.890Z,1027.72
2019-03-27T00:28:51.874Z,1027.74
2019-03-27T00:29:51.864Z,1027.76
2019-03-27T00:30:52.313Z,1027.75
2019-03-27T00:31:51.842Z,1027.77
2019-03-27T00:32:51.831Z,1027.74
2019-03-27T00:33:51.821Z,1027.71
2019-03-27T00:34:51.819Z,1027.70
2019-03-27T00:35:51.820Z,1027.70
2019-03-27T00:36:51.790Z,1027.68
2019-03-27T00:37:51.778Z,1027.66
2019-03-27T00:38:51.770Z,1027.70
2019-03-27T00:39:51.754Z,1027.72
2019-03-27T00:40:51.772Z,1027.75
2019-03-27T00:41:51.733Z,1027.76
2019-03-27T00:42:51.726Z,1027.72
2019-03-27T00:43:51.722Z,1027.68
2019-03-27T00:44:51.701Z,1027.72
2019-03-27T00:45:51.691Z,1027.68
2019-03-27T00:46:59.274Z,1027.71
2019-03-27T00:47:51.677Z,1027.68
2019-03-27T00:48:51.677Z,1027.69
2019-03-27T00:49:51.648Z,1027.68
2019-03-27T00:50:51.635Z,1027.69
2019-03-27T00:51:51.644Z,1027.73
2019-03-27T00:52:51.637Z,1027.68
2019-03-27T00:53:51.611Z,1027.64
2019-03-27T00:54:51.598Z,1027.64
2019-03-27T00:55:51.582Z,1027.59
2019-03-27T00:56:51.591Z,1027.63
2019-03-27T00:57:51.560Z,1027.63
2019-03-27T00:58:51.560Z,1027.64
2019-03-27T00:59:51.540Z,1027.66
2019-03-27T01:00:51.569Z,1027.64
2019-03-27T01:01:51.517Z,1027.73
2019-03-27T01:02:51.510Z,1027.71
2019-03-27T01:03:51.495Z,1027.69
2019-03-27T01:04:51.490Z,1027.69
2019-03-27T01:05:51.475Z,1027.65
2019-03-27T01:06:51.485Z,1027.69
2019-03-27T01:07:51.462Z,1027.70
2019-03-27T01:08:51.443Z,1027.71
2019-03-27T01:09:51.432Z,1027.71
2019-03-27T01:10:51.426Z,1027.72
2019-03-27T01:11:51.438Z,1027.68
2019-03-27T01:12:51.408Z,1027.70
2019-03-27T01:13:51.390Z,1027.64
2019-03-27T01:14:51.379Z,1027.68
2019-03-27T01:15:51.367Z,1027.69
2019-03-27T01:16:51.385Z,1027.69
2019-03-27T01:17:51.347Z,1027.70
2019-03-27T01:18:51.335Z,1027.63
2019-03-27T01:19:51.352Z,1027.60
2019-03-27T01:20:51.320Z,1027.65
2019-03-27T01:21:51.303Z,1027.60
2019-03-27T01:22:51.312Z,1027.59
2019-03-27T01:23:51.284Z,1027.55
2019-03-27T01:24:51.269Z,1027.55
2019-03-27T01:25:51.275Z,1027.52
2019-03-27T01:26:51.248Z,1027.50
2019-03-27T01:27:51.269Z,1027.47
2019-03-27T01:28:51.229Z,1027.47
2019-03-27T01:29:51.224Z,1027.46
2019-03-27T01:30:51.216Z,1027.47
2019-03-27T01:31:51.197Z,1027.51
2019-03-27T01:32:51.184Z,1027.47
2019-03-27T01:33:51.194Z,1027.48
2019-03-27T01:34:51.191Z,1027.50
2019-03-27T01:35:51.156Z,1027.56
2019-03-27T01:36:51.141Z,1027.50
2019-03-27T01:37:51.132Z,1027.50
2019-03-27T01:38:51.148Z,1027.53
2019-03-27T01:39:51.110Z,1027.54
2019-03-27T01:40:51.100Z,1027.55
2019-03-27T01:41:51.085Z,1027.58
2019-03-27T01:42:51.077Z,1027.63
2019-03-27T01:43:51.108Z,1027.65
2019-03-27T01:44:51.054Z,1027.71
2019-03-27T01:45:53.369Z,1027.67
2019-03-27T01:46:51.032Z,1027.65
2019-03-27T01:47:51.029Z,1027.64
2019-03-27T01:48:51.037Z,1027.64
2019-03-27T01:49:51.001Z,1027.62
2019-03-27T01:50:50.989Z,1027.57
2019-03-27T01:51:50.981Z,1027.58
2019-03-27T01:52:50.974Z,1027.55
2019-03-27T01:53:50.980Z,1027.62
2019-03-27T01:54:50.955Z,1027.64
2019-03-27T01:55:50.935Z,1027.62
2019-03-27T01:56:50.946Z,1027.62
2019-03-27T01:57:50.914Z,1027.62
2019-03-27T01:58:50.928Z,1027.64
2019-03-27T01:59:50.904Z,1027.57
2019-03-27T02:00:50.883Z,1027.61
2019-03-27T02:01:50.875Z,1027.65
2019-03-27T02:02:50.860Z,1027.64
2019-03-27T02:03:50.874Z,1027.61
2019-03-27T02:04:50.840Z,1027.62
2019-03-27T02:05:50.846Z,1027.65
2019-03-27T02:06:50.828Z,1027.62
2019-03-27T02:07:50.806Z,1027.59
2019-03-27T02:08:50.813Z,1027.63
2019-03-27T02:09:50.785Z,1027.64
2019-03-27T02:10:50.778Z,1027.61
2019-03-27T02:11:50.765Z,1027.59
2019-03-27T02:12:50.781Z,1027.69
2019-03-27T02:13:50.743Z,1027.70
2019-03-27T02:14:50.731Z,1027.72
2019-03-27T02:15:50.730Z,1027.75
2019-03-27T02:16:50.712Z,1027.76
2019-03-27T02:17:50.702Z,1027.75
2019-03-27T02:18:50.727Z,1027.73
2019-03-27T02:19:50.677Z,1027.74
2019-03-27T02:20:50.665Z,1027.78
2019-03-27T02:21:50.658Z,1027.73
2019-03-27T02:22:50.666Z,1027.72
2019-03-27T02:23:50.634Z,1027.75
2019-03-27T02:24:50.649Z,1027.78
2019-03-27T02:25:50.613Z,1027.78
2019-03-27T02:26:50.603Z,1027.77
2019-03-27T02:27:50.623Z,1027.76
2019-03-27T02:28:50.588Z,1027.74
2019-03-27T02:29:50.584Z,1027.76
2019-03-27T02:30:50.562Z,1027.80
2019-03-27T02:31:50.552Z,1027.75
2019-03-27T02:32:50.540Z,1027.79
2019-03-27T02:33:58.098Z,1027.76
2019-03-27T02:34:50.545Z,1027.79
2019-03-27T02:35:50.509Z,1027.78
2019-03-27T02:36:50.499Z,1027.75
2019-03-27T02:37:50.493Z,1027.74
2019-03-27T02:38:50.497Z,1027.71
2019-03-27T02:39:50.465Z,1027.76
2019-03-27T02:40:50.465Z,1027.67
2019-03-27T02:41:50.457Z,1027.64
2019-03-27T02:42:50.435Z,1027.66
2019-03-27T02:43:50.447Z,1027.69
2019-03-27T02:44:50.414Z,1027.70
2019-03-27T02:45:50.405Z,1027.65
2019-03-27T02:46:50.390Z,1027.68
2019-03-27T02:47:50.394Z,1027.66
2019-03-27T02:48:50.426Z,1027.64
2019-03-27T02:49:50.369Z,1027.59
2019-03-27T02:50:50.364Z,1027.54
2019-03-27T02:51:50.337Z,1027.56
2019-03-27T02:52:50.330Z,1027.57
2019-03-27T02:53:50.356Z,1027.59
2019-03-27T02:54:50.313Z,1027.63
2019-03-27T02:55:50.294Z,1027.60
2019-03-27T02:56:50.293Z,1027.58
2019-03-27T02:57:50.274Z,1027.59
2019-03-27T02:58:50.288Z,1027.59
2019-03-27T02:59:50.254Z,1027.59
2019-03-27T03:00:50.245Z,1027.61
2019-03-27T03:01:50.248Z,1027.64
2019-03-27T03:02:50.219Z,1027.62
2019-03-27T03:03:50.232Z,1027.63
2019-03-27T03:04:50.199Z,1027.66
2019-03-27T03:05:50.190Z,1027.65
2019-03-27T03:06:50.180Z,1027.64
2019-03-27T03:07:50.177Z,1027.64
2019-03-27T03:08:50.176Z,1027.59
2019-03-27T03:09:50.232Z,1027.58
2019-03-27T03:10:50.134Z,1027.58
2019-03-27T03:11:50.135Z,1027.61
2019-03-27T03:12:50.117Z,1027.55
2019-03-27T03:13:50.120Z,1027.59
2019-03-27T03:14:50.090Z,1027.60
2019-03-27T03:15:50.079Z,1027.63
2019-03-27T03:16:50.077Z,1027.62
2019-03-27T03:17:50.079Z,1027.60
2019-03-27T03:18:50.083Z,1027.61
2019-03-27T03:19:50.038Z,1027.57
2019-03-27T03:20:50.026Z,1027.57
2019-03-27T03:21:50.027Z,1027.58
2019-03-27T03:22:50.003Z,1027.57
2019-03-27T03:23:50.490Z,1027.54
2019-03-27T03:24:49.992Z,1027.57
2019-03-27T03:25:49.984Z,1027.55
2019-03-27T03:26:51.137Z,1027.49
2019-03-27T03:27:49.950Z,1027.53
2019-03-27T03:28:49.956Z,1027.54
2019-03-27T03:29:49.927Z,1027.58
2019-03-27T03:30:49.964Z,1027.59
2019-03-27T03:31:49.908Z,1027.61
2019-03-27T03:32:57.463Z,1027.60
2019-03-27T03:33:49.884Z,1027.65
2019-03-27T03:34:57.475Z,1027.66
2019-03-27T03:35:49.882Z,1027.61
2019-03-27T03:36:49.857Z,1027.62
2019-03-27T03:37:49.848Z,1027.62
2019-03-27T03:38:49.829Z,1027.67
2019-03-27T03:39:49.840Z,1027.68
2019-03-27T03:40:49.819Z,1027.68
2019-03-27T03:41:49.816Z,1027.67
2019-03-27T03:42:49.784Z,1027.72
2019-03-27T03:43:49.774Z,1027.67
2019-03-27T03:44:49.786Z,1027.68
2019-03-27T03:45:49.756Z,1027.69
2019-03-27T03:46:59.377Z,1027.71
2019-03-27T03:47:50.731Z,1027.70
2019-03-27T03:48:49.717Z,1027.69
2019-03-27T03:49:49.726Z,1027.72
2019-03-27T03:50:49.706Z,1027.69
2019-03-27T03:51:49.687Z,1027.75
2019-03-27T03:52:49.680Z,1027.67
2019-03-27T03:53:49.664Z,1027.69
2019-03-27T03:54:49.682Z,1027.67
2019-03-27T03:55:49.645Z,1027.69
2019-03-27T03:56:49.637Z,1027.71
2019-03-27T03:57:49.622Z,1027.71
2019-03-27T03:58:49.618Z,1027.70
2019-03-27T03:59:49.619Z,1027.74
2019-03-27T04:00:49.611Z,1027.73
2019-03-27T04:01:49.579Z,1027.76
2019-03-27T04:02:49.578Z,1027.77
2019-03-27T04:03:49.557Z,1027.80
2019-03-27T04:04:49.564Z,1027.82
2019-03-27T04:05:49.535Z,1027.82
2019-03-27T04:06:49.523Z,1027.85
2019-03-27T04:07:49.513Z,1027.83
2019-03-27T04:08:49.505Z,1027.85
2019-03-27T04:09:49.511Z,1027.80
2019-03-27T04:10:49.487Z,1027.84
2019-03-27T04:11:49.472Z,1027.85
2019-03-27T04:12:49.460Z,1027.89
2019-03-27T04:13:49.447Z,1027.86
2019-03-27T04:14:49.457Z,1027.85
2019-03-27T04:15:49.426Z,1027.87
2019-03-27T04:16:49.419Z,1027.88
2019-03-27T04:17:49.404Z,1027.89
2019-03-27T04:18:49.399Z,1027.89
2019-03-27T04:19:49.403Z,1027.98
2019-03-27T04:20:49.385Z,1027.98
2019-03-27T04:21:49.362Z,1027.93
2019-03-27T04:22:49.349Z,1028.01
2019-03-27T04:23:49.340Z,1027.96
2019-03-27T04:24:51.057Z,1028.00
2019-03-27T04:26:09.016Z,1028.00
2019-03-27T04:26:50.311Z,1028.01
2019-03-27T04:27:49.296Z,1028.03
2019-03-27T04:28:49.311Z,1028.09
2019-03-27T04:29:49.281Z,1028.07
2019-03-27T04:30:49.285Z,1028.08
2019-03-27T04:31:49.258Z,1028.12
2019-03-27T04:32:49.244Z,1028.13
2019-03-27T04:33:49.237Z,1028.08
2019-03-27T04:34:49.229Z,1028.09
2019-03-27T04:35:49.237Z,1028.18
2019-03-27T04:36:49.200Z,1028.16
2019-03-27T04:37:49.193Z,1028.14
2019-03-27T04:38:49.194Z,1028.10
2019-03-27T04:39:49.169Z,1028.17
2019-03-27T04:40:49.168Z,1028.21
2019-03-27T04:41:49.165Z,1028.20
2019-03-27T04:42:49.136Z,1028.24
2019-03-27T04:43:49.127Z,1028.15
2019-03-27T04:44:49.113Z,1028.16
2019-03-27T04:45:49.110Z,1028.19
2019-03-27T04:46:49.123Z,1028.19
2019-03-27T04:47:49.079Z,1028.20
2019-03-27T04:48:49.068Z,1028.15
2019-03-27T04:49:49.056Z,1028.21
2019-03-27T04:50:49.044Z,1028.21
2019-03-27T04:51:49.054Z,1028.21
2019-03-27T04:52:49.023Z,1028.23
2019-03-27T04:53:49.013Z,1028.24
2019-03-27T04:54:49.006Z,1028.24
2019-03-27T04:55:48.994Z,1028.28
2019-03-27T04:56:48.999Z,1028.23
2019-03-27T04:57:48.983Z,1028.34
2019-03-27T04:58:48.960Z,1028.33
2019-03-27T04:59:48.950Z,1028.30
2019-03-27T05:00:48.937Z,1028.28
2019-03-27T05:01:48.950Z,1028.26
2019-03-27T05:02:48.916Z,1028.32
2019-03-27T05:03:48.911Z,1028.32
2019-03-27T05:04:48.951Z,1028.31
2019-03-27T05:05:48.884Z,1028.35
2019-03-27T05:06:48.900Z,1028.35
2019-03-27T05:07:48.861Z,1028.40
2019-03-27T05:08:48.855Z,1028.33
2019-03-27T05:09:48.849Z,1028.31
2019-03-27T05:10:48.828Z,1028.31
2019-03-27T05:11:48.837Z,1028.29
2019-03-27T05:12:48.898Z,1028.28
2019-03-27T05:13:48.799Z,1028.27
2019-03-27T05:14:48.784Z,1028.29
2019-03-27T05:15:48.784Z,1028.34
2019-03-27T05:16:48.788Z,1028.33
2019-03-27T05:17:48.764Z,1028.31
2019-03-27T05:18:48.751Z,1028.34
2019-03-27T05:19:48.730Z,1028.35
2019-03-27T05:20:48.719Z,1028.39
2019-03-27T05:21:48.729Z,1028.39
2019-03-27T05:22:48.702Z,1028.41
2019-03-27T05:23:48.697Z,1028.45
2019-03-27T05:24:48.674Z,1028.53
2019-03-27T05:25:48.670Z,1028.50
2019-03-27T05:26:48.670Z,1028.46
2019-03-27T05:27:48.645Z,1028.42
2019-03-27T05:28:48.630Z,1028.39
2019-03-27T05:29:48.619Z,1028.46
2019-03-27T05:30:48.607Z,1028.41
2019-03-27T05:31:48.619Z,1028.35
2019-03-27T05:32:48.606Z,1028.37
2019-03-27T05:33:48.577Z,1028.39
2019-03-27T05:34:48.565Z,1028.38
2019-03-27T05:35:48.567Z,1028.42
2019-03-27T05:36:48.567Z,1028.45
2019-03-27T05:37:48.530Z,1028.44
2019-03-27T05:38:48.520Z,1028.44
2019-03-27T05:39:48.509Z,1028.43
2019-03-27T05:40:48.518Z,1028.51
2019-03-27T05:41:48.506Z,1028.47
2019-03-27T05:43:00.011Z,1028.47
2019-03-27T05:43:49.466Z,1028.47
2019-03-27T05:44:48.456Z,1028.55
2019-03-27T05:45:48.444Z,1028.52
2019-03-27T05:46:48.448Z,1028.49
2019-03-27T05:47:58.821Z,1028.49
2019-03-27T05:48:49.410Z,1028.54
2019-03-27T05:49:48.397Z,1028.53
2019-03-27T05:50:48.402Z,1028.52
2019-03-27T05:51:48.397Z,1028.52
2019-03-27T05:52:48.370Z,1028.52
2019-03-27T05:53:48.353Z,1028.59
2019-03-27T05:54:48.348Z,1028.58
2019-03-27T05:55:48.332Z,1028.58
2019-03-27T05:56:48.341Z,1028.64
2019-03-27T05:57:48.309Z,1028.70
2019-03-27T05:58:48.300Z,1028.69
2019-03-27T05:59:48.295Z,1028.80
2019-03-27T06:00:48.279Z,1028.75
2019-03-27T06:01:48.287Z,1028.79
2019-03-27T06:02:48.281Z,1028.85
2019-03-27T06:03:48.247Z,1028.86
2019-03-27T06:04:48.240Z,1028.82
2019-03-27T06:05:48.228Z,1028.81
2019-03-27T06:06:48.232Z,1028.87
2019-03-27T06:07:48.203Z,1028.84
2019-03-27T06:08:48.211Z,1028.84
2019-03-27T06:09:48.181Z,1028.86
2019-03-27T06:10:48.174Z,1028.85
2019-03-27T06:11:48.176Z,1028.89
2019-03-27T06:12:48.157Z,1028.88
2019-03-27T06:13:48.148Z,1028.88
2019-03-27T06:14:48.133Z,1028.89
2019-03-27T06:15:48.128Z,1028.81
2019-03-27T06:16:48.126Z,1028.84
2019-03-27T06:17:48.096Z,1028.87
2019-03-27T06:18:48.085Z,1028.84
2019-03-27T06:19:48.071Z,1028.88
2019-03-27T06:20:48.067Z,1028.88
2019-03-27T06:21:48.073Z,1028.84
2019-03-27T06:22:48.043Z,1028.87
2019-03-27T06:23:48.031Z,1028.87
2019-03-27T06:24:48.016Z,1028.86
2019-03-27T06:25:48.009Z,1028.85
2019-03-27T06:26:48.015Z,1028.82
2019-03-27T06:27:47.988Z,1028.83
2019-03-27T06:28:47.974Z,1028.84
2019-03-27T06:29:47.964Z,1028.89
2019-03-27T06:30:47.951Z,1028.88
2019-03-27T06:31:47.944Z,1028.89
2019-03-27T06:32:47.953Z,1028.85
2019-03-27T06:33:47.919Z,1028.90
2019-03-27T06:34:47.908Z,1028.84
2019-03-27T06:35:47.898Z,1028.87
2019-03-27T06:36:47.885Z,1028.86
2019-03-27T06:37:47.896Z,1028.90
2019-03-27T06:38:47.883Z,1028.87
2019-03-27T06:39:47.856Z,1028.85
2019-03-27T06:40:47.844Z,1028.92
2019-03-27T06:41:47.837Z,1028.90
2019-03-27T06:42:47.840Z,1028.96
2019-03-27T06:43:47.815Z,1028.90
2019-03-27T06:44:47.801Z,1028.93
2019-03-27T06:45:47.787Z,1028.97
2019-03-27T06:46:47.780Z,1028.99
2019-03-27T06:47:47.789Z,1028.95
2019-03-27T06:48:47.757Z,1028.93
2019-03-27T06:49:47.752Z,1028.95
2019-03-27T06:50:47.736Z,1028.96
2019-03-27T06:51:47.721Z,1028.99
2019-03-27T06:52:47.729Z,1029.05
2019-03-27T06:53:47.702Z,1028.98
2019-03-27T06:54:47.690Z,1029.01
2019-03-27T06:55:47.679Z,1029.04
2019-03-27T06:56:47.670Z,1029.07
2019-03-27T06:57:47.676Z,1029.04
2019-03-27T06:58:54.647Z,1029.07
2019-03-27T06:59:48.637Z,1029.11
2019-03-27T07:00:47.627Z,1029.10
2019-03-27T07:01:47.620Z,1029.09
2019-03-27T07:02:47.623Z,1029.11
2019-03-27T07:03:47.595Z,1029.07
2019-03-27T07:04:47.585Z,1029.13
2019-03-27T07:05:47.573Z,1029.19
2019-03-27T07:06:47.565Z,1029.15
2019-03-27T07:07:47.571Z,1029.15
2019-03-27T07:08:47.542Z,1029.17
2019-03-27T07:09:47.536Z,1029.21
2019-03-27T07:10:47.520Z,1029.29
2019-03-27T07:11:47.509Z,1029.27
2019-03-27T07:12:47.518Z,1029.34
2019-03-27T07:13:47.495Z,1029.34
2019-03-27T07:14:47.478Z,1029.42
2019-03-27T07:15:47.467Z,1029.34
2019-03-27T07:16:47.455Z,1029.40
2019-03-27T07:17:47.465Z,1029.41
2019-03-27T07:18:47.440Z,1029.37
2019-03-27T07:19:47.439Z,1029.38
2019-03-27T07:20:47.421Z,1029.41
2019-03-27T07:21:47.425Z,1029.43
2019-03-27T07:22:47.393Z,1029.44
2019-03-27T07:23:47.399Z,1029.44
2019-03-27T07:24:47.377Z,1029.45
2019-03-27T07:25:47.366Z,1029.41
2019-03-27T07:26:47.376Z,1029.47
2019-03-27T07:27:47.341Z,1029.39
2019-03-27T07:28:47.352Z,1029.43
2019-03-27T07:29:47.333Z,1029.46
2019-03-27T07:30:47.307Z,1029.43
2019-03-27T07:31:47.302Z,1029.45
2019-03-27T07:32:47.306Z,1029.41
2019-03-27T07:33:47.277Z,1029.41
2019-03-27T07:34:47.267Z,1029.40
2019-03-27T07:35:47.255Z,1029.35
2019-03-27T07:36:47.245Z,1029.38
2019-03-27T07:37:47.253Z,1029.42
2019-03-27T07:38:47.225Z,1029.42
2019-03-27T07:39:47.222Z,1029.42
2019-03-27T07:40:47.203Z,1029.43
2019-03-27T07:41:47.191Z,1029.42
2019-03-27T07:42:47.201Z,1029.39
2019-03-27T07:43:47.177Z,1029.39
2019-03-27T07:44:47.160Z,1029.38
2019-03-27T07:45:47.148Z,1029.36
2019-03-27T07:46:47.139Z,1029.42
2019-03-27T07:47:48.230Z,1029.35
2019-03-27T07:48:53.923Z,1029.43
2019-03-27T07:49:48.106Z,1029.38
2019-03-27T07:50:47.101Z,1029.35
2019-03-27T07:51:47.088Z,1029.31
2019-03-27T07:52:47.096Z,1029.37
2019-03-27T07:53:47.064Z,1029.37
2019-03-27T07:54:47.055Z,1029.39
2019-03-27T07:55:47.064Z,1029.41
2019-03-27T07:56:47.032Z,1029.32
2019-03-27T07:57:47.046Z,1029.35
2019-03-27T07:58:47.012Z,1029.44
2019-03-27T07:59:47.000Z,1029.42
2019-03-27T08:00:46.994Z,1029.43
2019-03-27T08:01:46.988Z,1029.44
2019-03-27T08:02:46.989Z,1029.42
2019-03-27T08:03:46.964Z,1029.46
2019-03-27T08:04:46.946Z,1029.47
2019-03-27T08:05:46.936Z,1029.48
2019-03-27T08:06:46.925Z,1029.46
2019-03-27T08:07:46.935Z,1029.49
2019-03-27T08:08:46.903Z,1029.43
2019-03-27T08:09:46.891Z,1029.44
2019-03-27T08:10:46.882Z,1029.47
2019-03-27T08:11:46.875Z,1029.47
2019-03-27T08:12:46.883Z,1029.40
2019-03-27T08:13:46.852Z,1029.37
2019-03-27T08:14:46.838Z,1029.38
2019-03-27T08:15:46.835Z,1029.40
2019-03-27T08:16:46.821Z,1029.39
2019-03-27T08:17:46.824Z,1029.40
2019-03-27T08:18:46.797Z,1029.38
2019-03-27T08:19:46.785Z,1029.38
2019-03-27T08:20:46.775Z,1029.41
2019-03-27T08:21:46.765Z,1029.39
2019-03-27T08:22:46.773Z,1029.42
2019-03-27T08:23:46.743Z,1029.38
2019-03-27T08:24:46.732Z,1029.45
2019-03-27T08:25:46.726Z,1029.44
2019-03-27T08:26:46.713Z,1029.36
2019-03-27T08:27:46.722Z,1029.44
2019-03-27T08:28:46.692Z,1029.40
2019-03-27T08:29:46.679Z,1029.45
2019-03-27T08:30:46.667Z,1029.44
2019-03-27T08:31:46.661Z,1029.44
2019-03-27T08:32:46.675Z,1029.41
2019-03-27T08:33:46.636Z,1029.40
2019-03-27T08:34:46.626Z,1029.37
2019-03-27T08:35:46.615Z,1029.40
2019-03-27T08:36:46.604Z,1029.38
2019-03-27T08:37:46.620Z,1029.45
2019-03-27T08:38:46.583Z,1029.41
2019-03-27T08:39:46.572Z,1029.45
2019-03-27T08:40:46.562Z,1029.48
2019-03-27T08:41:46.556Z,1029.48
2019-03-27T08:42:46.562Z,1029.52
2019-03-27T08:43:46.535Z,1029.48
2019-03-27T08:44:46.522Z,1029.49
2019-03-27T08:45:46.509Z,1029.51
2019-03-27T08:46:46.499Z,1029.47
2019-03-27T08:47:46.507Z,1029.48
2019-03-27T08:48:46.480Z,1029.52
2019-03-27T08:49:46.478Z,1029.49
2019-03-27T08:50:46.456Z,1029.46
2019-03-27T08:51:46.444Z,1029.53
2019-03-27T08:52:46.454Z,1029.53
2019-03-27T08:53:46.428Z,1029.52
2019-03-27T08:54:46.412Z,1029.56
2019-03-27T08:55:46.403Z,1029.59
2019-03-27T08:56:46.392Z,1029.69
2019-03-27T08:57:46.427Z,1029.60
2019-03-27T08:58:46.378Z,1029.64
2019-03-27T08:59:46.361Z,1029.62
2019-03-27T09:00:46.350Z,1029.65
2019-03-27T09:01:46.350Z,1029.67
2019-03-27T09:02:46.352Z,1029.70
2019-03-27T09:03:46.317Z,1029.70
2019-03-27T09:04:46.306Z,1029.69
2019-03-27T09:05:46.296Z,1029.70
2019-03-27T09:06:46.287Z,1029.73
2019-03-27T09:07:46.427Z,1029.71
2019-03-27T09:08:46.262Z,1029.68
2019-03-27T09:09:46.253Z,1029.68
2019-03-27T09:10:46.243Z,1029.68
2019-03-27T09:11:46.236Z,1029.67
2019-03-27T09:12:46.243Z,1029.60
2019-03-27T09:13:46.218Z,1029.64
2019-03-27T09:14:46.202Z,1029.67
2019-03-27T09:15:46.189Z,1029.70
2019-03-27T09:16:46.180Z,1029.67
2019-03-27T09:17:46.189Z,1029.66
2019-03-27T09:18:46.157Z,1029.75
2019-03-27T09:19:46.154Z,1029.73
2019-03-27T09:20:46.135Z,1029.74
2019-03-27T09:21:46.122Z,1029.72
2019-03-27T09:22:46.134Z,1029.66
2019-03-27T09:23:46.163Z,1029.70
2019-03-27T09:24:46.095Z,1029.76
2019-03-27T09:25:46.081Z,1029.75
2019-03-27T09:26:46.075Z,1029.80
2019-03-27T09:27:46.079Z,1029.81
2019-03-27T09:28:46.052Z,1029.78
2019-03-27T09:29:46.042Z,1029.77
2019-03-27T09:30:46.032Z,1029.81
2019-03-27T09:31:46.019Z,1029.78
2019-03-27T09:32:46.026Z,1029.74
2019-03-27T09:33:45.995Z,1029.77
2019-03-27T09:34:45.989Z,1029.75
2019-03-27T09:35:46.015Z,1029.76
2019-03-27T09:36:45.969Z,1029.76
2019-03-27T09:37:45.973Z,1029.76
2019-03-27T09:38:45.941Z,1029.75
2019-03-27T09:39:45.939Z,1029.73
2019-03-27T09:40:45.925Z,1029.73
2019-03-27T09:41:45.910Z,1029.68
2019-03-27T09:42:45.922Z,1029.76
2019-03-27T09:43:45.913Z,1029.75
2019-03-27T09:44:45.960Z,1029.75
2019-03-27T09:45:45.883Z,1029.83
2019-03-27T09:46:45.859Z,1029.84
2019-03-27T09:47:45.848Z,1029.82
2019-03-27T09:48:45.855Z,1029.82
2019-03-27T09:49:49.923Z,1029.73
2019-03-27T09:50:45.811Z,1029.80
2019-03-27T09:51:45.801Z,1029.78
2019-03-27T09:52:45.795Z,1029.79
2019-03-27T09:53:45.798Z,1029.76
2019-03-27T09:54:45.837Z,1029.74
2019-03-27T09:55:45.759Z,1029.79
2019-03-27T09:56:45.761Z,1029.75
2019-03-27T09:57:45.737Z,1029.74
2019-03-27T09:58:45.748Z,1029.79
2019-03-27T09:59:45.717Z,1029.78
2019-03-27T10:00:45.705Z,1029.78
2019-03-27T10:01:45.693Z,1029.74
2019-03-27T10:02:45.689Z,1029.76
2019-03-27T10:03:45.690Z,1029.70
2019-03-27T10:04:45.662Z,1029.66
2019-03-27T10:05:45.650Z,1029.65
2019-03-27T10:06:45.642Z,1029.67
2019-03-27T10:07:45.630Z,1029.68
2019-03-27T10:08:45.638Z,1029.64
2019-03-27T10:09:45.713Z,1029.68
2019-03-27T10:10:45.596Z,1029.64
2019-03-27T10:11:45.586Z,1029.62
2019-03-27T10:12:45.576Z,1029.62
2019-03-27T10:13:45.583Z,1029.69
2019-03-27T10:14:47.560Z,1029.62
2019-03-27T10:15:45.542Z,1029.67
2019-03-27T10:16:45.531Z,1029.68
2019-03-27T10:17:45.520Z,1029.67
2019-03-27T10:18:47.441Z,1029.63
2019-03-27T10:19:45.513Z,1029.69
2019-03-27T10:20:45.489Z,1029.70
2019-03-27T10:21:45.479Z,1029.69
2019-03-27T10:22:45.468Z,1029.72
2019-03-27T10:23:45.488Z,1029.67
2019-03-27T10:24:45.445Z,1029.68
2019-03-27T10:25:45.434Z,1029.68
2019-03-27T10:26:45.424Z,1029.70
2019-03-27T10:27:45.417Z,1029.67
2019-03-27T10:28:45.426Z,1029.69
2019-03-27T10:29:45.394Z,1029.73
2019-03-27T10:30:45.380Z,1029.73
2019-03-27T10:31:45.374Z,1029.80
2019-03-27T10:32:45.366Z,1029.75
2019-03-27T10:33:45.367Z,1029.82
2019-03-27T10:34:45.336Z,1029.73
2019-03-27T10:35:45.328Z,1029.77
2019-03-27T10:36:45.321Z,1029.75
2019-03-27T10:37:45.309Z,1029.74
2019-03-27T10:38:45.311Z,1029.76
2019-03-27T10:39:45.283Z,1029.73
2019-03-27T10:40:45.273Z,1029.79
2019-03-27T10:41:45.268Z,1029.77
2019-03-27T10:42:45.252Z,1029.78
2019-03-27T10:43:45.262Z,1029.80
2019-03-27T10:44:45.229Z,1029.80
2019-03-27T10:45:45.314Z,1029.85
2019-03-27T10:46:45.214Z,1029.80
2019-03-27T10:47:45.200Z,1029.78
2019-03-27T10:48:52.547Z,1029.77
2019-03-27T10:49:46.175Z,1029.81
2019-03-27T10:50:45.172Z,1029.81
2019-03-27T10:51:45.153Z,1029.81
2019-03-27T10:52:45.144Z,1029.77
2019-03-27T10:53:45.151Z,1029.80
2019-03-27T10:54:45.123Z,1029.80
2019-03-27T10:55:45.120Z,1029.77
2019-03-27T10:56:45.099Z,1029.75
2019-03-27T10:57:45.091Z,1029.80
2019-03-27T10:58:45.098Z,1029.80
2019-03-27T10:59:45.069Z,1029.78
2019-03-27T11:00:45.057Z,1029.80
2019-03-27T11:01:45.048Z,1029.82
2019-03-27T11:02:45.034Z,1029.80
2019-03-27T11:03:45.043Z,1029.83
2019-03-27T11:04:45.022Z,1029.83
2019-03-27T11:05:45.005Z,1029.82
2019-03-27T11:06:44.993Z,1029.81
2019-03-27T11:07:45.062Z,1029.78
2019-03-27T11:08:44.994Z,1029.78
2019-03-27T11:09:44.960Z,1029.78
2019-03-27T11:10:44.949Z,1029.78
2019-03-27T11:11:44.941Z,1029.80
2019-03-27T11:12:44.926Z,1029.83
2019-03-27T11:13:44.966Z,1029.82
2019-03-27T11:14:44.905Z,1029.82
2019-03-27T11:15:44.894Z,1029.82
2019-03-27T11:16:44.888Z,1029.84
2019-03-27T11:17:44.876Z,1029.85
2019-03-27T11:18:44.885Z,1029.78
2019-03-27T11:19:44.858Z,1029.80
2019-03-27T11:20:44.840Z,1029.81
2019-03-27T11:21:44.830Z,1029.79
2019-03-27T11:22:44.842Z,1029.80
2019-03-27T11:23:44.833Z,1029.76
2019-03-27T11:24:44.798Z,1029.79
2019-03-27T11:25:44.788Z,1029.72
2019-03-27T11:26:44.779Z,1029.81
2019-03-27T11:27:44.771Z,1029.74
2019-03-27T11:28:44.777Z,1029.72
2019-03-27T11:29:44.749Z,1029.71
2019-03-27T11:30:48.211Z,1029.70
2019-03-27T11:31:44.723Z,1029.70
2019-03-27T11:32:44.809Z,1029.67
2019-03-27T11:33:44.725Z,1029.70
2019-03-27T11:34:44.696Z,1029.66
2019-03-27T11:35:44.691Z,1029.65
2019-03-27T11:36:44.696Z,1029.65
2019-03-27T11:37:44.657Z,1029.67
2019-03-27T11:38:44.668Z,1029.66
2019-03-27T11:39:44.636Z,1029.63
2019-03-27T11:40:44.634Z,1029.65
2019-03-27T11:41:44.615Z,1029.65
2019-03-27T11:42:44.604Z,1029.67
2019-03-27T11:43:54.799Z,1029.65
2019-03-27T11:44:45.582Z,1029.62
2019-03-27T11:45:44.573Z,1029.64
2019-03-27T11:46:44.561Z,1029.61
2019-03-27T11:47:44.554Z,1029.66
2019-03-27T11:48:44.566Z,1029.64
2019-03-27T11:49:44.529Z,1029.71
2019-03-27T11:50:45.539Z,1029.70
2019-03-27T11:51:44.506Z,1029.72
2019-03-27T11:52:44.499Z,1029.72
2019-03-27T11:53:44.502Z,1029.67
2019-03-27T11:54:44.485Z,1029.67
2019-03-27T11:55:44.467Z,1029.66
2019-03-27T11:56:44.453Z,1029.65
2019-03-27T11:57:44.441Z,1029.64
2019-03-27T11:58:44.464Z,1029.66
2019-03-27T11:59:53.832Z,1029.72
2019-03-27T12:00:54.613Z,1029.68
2019-03-27T12:01:45.396Z,1029.66
2019-03-27T12:02:44.388Z,1029.72
2019-03-27T12:03:44.401Z,1029.70
2019-03-27T12:04:44.372Z,1029.68
2019-03-27T12:05:45.849Z,1029.69